Airport View

Enter AWOS ICAO identifier for current METAR.

ex. KFNL

KTME 140835Z AUTO 35003KT 10SM CLR 07/06 A2988 RMK AO2

14 Dec 2019 08:37

Frequency: 119.525

Phone: 281-945-5451

Other Area AWOS: KIWS - KSGR - KDWH - KELA

TAF KSGR 140526Z 1406/1506 VRB04KT P6SM SKC FM141900 15007KT P6SM FEW250